sensor_id;sensor_type;location;lat;lon;timestamp;P1;durP1;ratioP1;P2;durP2;ratioP2
32445;SDS011;18899;50.748;7.102;2022-10-28T00:01:18;9.45;;;3.22;;
32445;SDS011;18899;50.748;7.102;2022-10-28T00:03:46;7.85;;;3.67;;
32445;SDS011;18899;50.748;7.102;2022-10-28T00:06:24;8.05;;;3.30;;
32445;SDS011;18899;50.748;7.102;2022-10-28T00:08:52;7.35;;;3.15;;
32445;SDS011;18899;50.748;7.102;2022-10-28T00:11:25;12.15;;;3.22;;
32445;SDS011;18899;50.748;7.102;2022-10-28T00:13:53;8.07;;;3.38;;
32445;SDS011;18899;50.748;7.102;2022-10-28T00:16:21;15.45;;;4.20;;
32445;SDS011;18899;50.748;7.102;2022-10-28T00:18:49;15.05;;;3.65;;
32445;SDS011;18899;50.748;7.102;2022-10-28T00:21:18;9.90;;;3.25;;
32445;SDS011;18899;50.748;7.102;2022-10-28T00:23:45;7.88;;;2.65;;
32445;SDS011;18899;50.748;7.102;2022-10-28T00:28:42;9.15;;;3.10;;
32445;SDS011;18899;50.748;7.102;2022-10-28T00:31:10;9.52;;;3.47;;
32445;SDS011;18899;50.748;7.102;2022-10-28T00:33:36;13.60;;;3.03;;
32445;SDS011;18899;50.748;7.102;2022-10-28T00:36:09;17.48;;;3.47;;
32445;SDS011;18899;50.748;7.102;2022-10-28T00:38:39;9.43;;;3.08;;
32445;SDS011;18899;50.748;7.102;2022-10-28T00:41:06;15.43;;;4.28;;
32445;SDS011;18899;50.748;7.102;2022-10-28T00:43:33;9.45;;;3.05;;
32445;SDS011;18899;50.748;7.102;2022-10-28T00:46:10;8.60;;;2.78;;
32445;SDS011;18899;50.748;7.102;2022-10-28T00:49:05;8.77;;;2.83;;
32445;SDS011;18899;50.748;7.102;2022-10-28T00:52:08;9.30;;;3.13;;
32445;SDS011;18899;50.748;7.102;2022-10-28T00:54:36;11.88;;;2.90;;
32445;SDS011;18899;50.748;7.102;2022-10-28T00:57:04;10.60;;;3.13;;
32445;SDS011;18899;50.748;7.102;2022-10-28T00:59:35;13.63;;;3.95;;
32445;SDS011;18899;50.748;7.102;2022-10-28T01:02:03;10.15;;;2.72;;
32445;SDS011;18899;50.748;7.102;2022-10-28T01:04:30;8.77;;;3.00;;
32445;SDS011;18899;50.748;7.102;2022-10-28T01:06:56;8.75;;;3.30;;
32445;SDS011;18899;50.748;7.102;2022-10-28T01:09:22;9.30;;;2.92;;
32445;SDS011;18899;50.748;7.102;2022-10-28T01:31:43;7.55;;;2.80;;
32445;SDS011;18899;50.748;7.102;2022-10-28T01:50:17;8.20;;;2.72;;
32445;SDS011;18899;50.748;7.102;2022-10-28T01:52:52;9.13;;;2.80;;
32445;SDS011;18899;50.748;7.102;2022-10-28T01:55:28;9.25;;;3.00;;
32445;SDS011;18899;50.748;7.102;2022-10-28T01:57:58;9.10;;;2.90;;
32445;SDS011;18899;50.748;7.102;2022-10-28T02:00:25;14.57;;;2.90;;
32445;SDS011;18899;50.748;7.102;2022-10-28T02:02:51;7.57;;;2.63;;
32445;SDS011;18899;50.748;7.102;2022-10-28T02:10:41;11.60;;;3.20;;
32445;SDS011;18899;50.748;7.102;2022-10-28T02:13:43;4.78;;;2.60;;
32445;SDS011;18899;50.748;7.102;2022-10-28T02:17:05;15.57;;;3.75;;
32445;SDS011;18899;50.748;7.102;2022-10-28T02:22:48;10.43;;;3.35;;
32445;SDS011;18899;50.748;7.102;2022-10-28T02:33:19;21.40;;;3.35;;
32445;SDS011;18899;50.748;7.102;2022-10-28T02:35:48;8.15;;;2.42;;
32445;SDS011;18899;50.748;7.102;2022-10-28T02:38:21;9.98;;;2.95;;
32445;SDS011;18899;50.748;7.102;2022-10-28T02:41:05;8.80;;;2.97;;
32445;SDS011;18899;50.748;7.102;2022-10-28T02:43:52;10.18;;;3.17;;
32445;SDS011;18899;50.748;7.102;2022-10-28T02:46:21;8.48;;;3.10;;
32445;SDS011;18899;50.748;7.102;2022-10-28T02:48:52;9.02;;;2.95;;
32445;SDS011;18899;50.748;7.102;2022-10-28T02:51:43;13.23;;;2.72;;
32445;SDS011;18899;50.748;7.102;2022-10-28T02:57:15;15.85;;;2.92;;
32445;SDS011;18899;50.748;7.102;2022-10-28T03:00:16;9.68;;;3.08;;
32445;SDS011;18899;50.748;7.102;2022-10-28T03:02:44;8.30;;;2.90;;
32445;SDS011;18899;50.748;7.102;2022-10-28T03:05:10;12.60;;;2.90;;
32445;SDS011;18899;50.748;7.102;2022-10-28T03:07:35;13.20;;;2.95;;
32445;SDS011;18899;50.748;7.102;2022-10-28T03:10:01;10.18;;;3.03;;
32445;SDS011;18899;50.748;7.102;2022-10-28T03:12:27;7.75;;;3.20;;
32445;SDS011;18899;50.748;7.102;2022-10-28T03:14:52;10.80;;;3.20;;
32445;SDS011;18899;50.748;7.102;2022-10-28T03:17:18;13.90;;;3.33;;
32445;SDS011;18899;50.748;7.102;2022-10-28T03:19:43;10.60;;;2.67;;
32445;SDS011;18899;50.748;7.102;2022-10-28T03:22:09;9.68;;;2.58;;
32445;SDS011;18899;50.748;7.102;2022-10-28T03:24:34;12.38;;;2.58;;
32445;SDS011;18899;50.748;7.102;2022-10-28T03:27:00;8.15;;;3.03;;
32445;SDS011;18899;50.748;7.102;2022-10-28T03:29:25;7.28;;;3.00;;
32445;SDS011;18899;50.748;7.102;2022-10-28T03:31:51;12.20;;;3.17;;
32445;SDS011;18899;50.748;7.102;2022-10-28T03:34:16;10.18;;;3.58;;
32445;SDS011;18899;50.748;7.102;2022-10-28T03:36:42;12.68;;;3.92;;
32445;SDS011;18899;50.748;7.102;2022-10-28T03:39:07;7.40;;;2.80;;
32445;SDS011;18899;50.748;7.102;2022-10-28T03:41:33;10.68;;;3.50;;
32445;SDS011;18899;50.748;7.102;2022-10-28T03:43:58;14.88;;;3.60;;
32445;SDS011;18899;50.748;7.102;2022-10-28T03:46:24;20.27;;;4.18;;
32445;SDS011;18899;50.748;7.102;2022-10-28T03:48:49;11.45;;;3.65;;
32445;SDS011;18899;50.748;7.102;2022-10-28T03:51:15;9.20;;;3.15;;
32445;SDS011;18899;50.748;7.102;2022-10-28T03:53:41;8.85;;;3.08;;
32445;SDS011;18899;50.748;7.102;2022-10-28T03:56:06;14.63;;;3.70;;
32445;SDS011;18899;50.748;7.102;2022-10-28T03:58:32;6.93;;;2.97;;
32445;SDS011;18899;50.748;7.102;2022-10-28T04:00:58;13.93;;;3.70;;
32445;SDS011;18899;50.748;7.102;2022-10-28T04:03:23;14.13;;;2.92;;
32445;SDS011;18899;50.748;7.102;2022-10-28T04:05:49;10.25;;;3.15;;
32445;SDS011;18899;50.748;7.102;2022-10-28T04:08:16;12.48;;;3.38;;
32445;SDS011;18899;50.748;7.102;2022-10-28T04:10:42;15.20;;;3.58;;
32445;SDS011;18899;50.748;7.102;2022-10-28T04:13:09;18.35;;;4.22;;
32445;SDS011;18899;50.748;7.102;2022-10-28T04:15:34;15.98;;;3.28;;
32445;SDS011;18899;50.748;7.102;2022-10-28T04:18:00;12.70;;;3.78;;
32445;SDS011;18899;50.748;7.102;2022-10-28T04:20:26;16.00;;;3.13;;
32445;SDS011;18899;50.748;7.102;2022-10-28T04:22:52;8.18;;;3.20;;
32445;SDS011;18899;50.748;7.102;2022-10-28T04:25:19;11.93;;;3.35;;
32445;SDS011;18899;50.748;7.102;2022-10-28T04:27:48;12.70;;;3.15;;
32445;SDS011;18899;50.748;7.102;2022-10-28T04:30:13;12.85;;;2.83;;
32445;SDS011;18899;50.748;7.102;2022-10-28T04:32:40;7.85;;;3.05;;
32445;SDS011;18899;50.748;7.102;2022-10-28T04:35:06;9.00;;;3.67;;
32445;SDS011;18899;50.748;7.102;2022-10-28T04:37:32;11.75;;;2.85;;
32445;SDS011;18899;50.748;7.102;2022-10-28T04:39:58;8.40;;;3.10;;
32445;SDS011;18899;50.748;7.102;2022-10-28T04:42:24;12.65;;;3.28;;
32445;SDS011;18899;50.748;7.102;2022-10-28T04:44:49;9.93;;;3.10;;
32445;SDS011;18899;50.748;7.102;2022-10-28T04:47:15;7.22;;;2.80;;
32445;SDS011;18899;50.748;7.102;2022-10-28T04:49:41;20.48;;;4.22;;
32445;SDS011;18899;50.748;7.102;2022-10-28T04:52:07;7.88;;;3.38;;
32445;SDS011;18899;50.748;7.102;2022-10-28T04:54:33;7.63;;;3.05;;
32445;SDS011;18899;50.748;7.102;2022-10-28T04:56:58;10.70;;;2.80;;
32445;SDS011;18899;50.748;7.102;2022-10-28T04:59:23;7.43;;;3.20;;
32445;SDS011;18899;50.748;7.102;2022-10-28T05:01:49;12.32;;;3.40;;
32445;SDS011;18899;50.748;7.102;2022-10-28T05:04:15;11.75;;;3.78;;
32445;SDS011;18899;50.748;7.102;2022-10-28T05:06:40;6.15;;;2.72;;
32445;SDS011;18899;50.748;7.102;2022-10-28T05:09:06;11.93;;;3.53;;
32445;SDS011;18899;50.748;7.102;2022-10-28T05:11:31;6.85;;;3.20;;
32445;SDS011;18899;50.748;7.102;2022-10-28T05:13:57;15.55;;;3.67;;
32445;SDS011;18899;50.748;7.102;2022-10-28T05:16:22;11.82;;;3.40;;
32445;SDS011;18899;50.748;7.102;2022-10-28T05:18:48;23.13;;;3.88;;
32445;SDS011;18899;50.748;7.102;2022-10-28T05:21:13;12.45;;;3.97;;
32445;SDS011;18899;50.748;7.102;2022-10-28T05:23:39;10.15;;;3.38;;
32445;SDS011;18899;50.748;7.102;2022-10-28T05:26:04;12.23;;;3.67;;
32445;SDS011;18899;50.748;7.102;2022-10-28T05:28:30;8.10;;;2.90;;
32445;SDS011;18899;50.748;7.102;2022-10-28T05:30:56;12.00;;;4.05;;
32445;SDS011;18899;50.748;7.102;2022-10-28T05:33:21;8.30;;;2.88;;
32445;SDS011;18899;50.748;7.102;2022-10-28T05:35:47;13.98;;;3.45;;
32445;SDS011;18899;50.748;7.102;2022-10-28T05:38:13;13.95;;;3.15;;
32445;SDS011;18899;50.748;7.102;2022-10-28T05:40:38;8.70;;;3.58;;
32445;SDS011;18899;50.748;7.102;2022-10-28T05:43:04;14.98;;;3.28;;
32445;SDS011;18899;50.748;7.102;2022-10-28T05:45:29;15.77;;;3.03;;
32445;SDS011;18899;50.748;7.102;2022-10-28T05:47:55;9.57;;;3.88;;
32445;SDS011;18899;50.748;7.102;2022-10-28T05:50:21;8.70;;;3.55;;
32445;SDS011;18899;50.748;7.102;2022-10-28T05:55:14;9.50;;;3.25;;
32445;SDS011;18899;50.748;7.102;2022-10-28T05:57:43;13.00;;;3.25;;
32445;SDS011;18899;50.748;7.102;2022-10-28T06:00:12;15.45;;;3.90;;
32445;SDS011;18899;50.748;7.102;2022-10-28T06:02:39;11.52;;;3.70;;
32445;SDS011;18899;50.748;7.102;2022-10-28T06:05:05;9.90;;;3.42;;
32445;SDS011;18899;50.748;7.102;2022-10-28T06:07:31;10.10;;;3.45;;
32445;SDS011;18899;50.748;7.102;2022-10-28T06:09:58;8.43;;;3.15;;
32445;SDS011;18899;50.748;7.102;2022-10-28T06:12:24;16.02;;;3.47;;
32445;SDS011;18899;50.748;7.102;2022-10-28T06:14:49;11.02;;;3.20;;
32445;SDS011;18899;50.748;7.102;2022-10-28T06:17:15;10.43;;;3.47;;
32445;SDS011;18899;50.748;7.102;2022-10-28T06:19:40;12.82;;;3.03;;
32445;SDS011;18899;50.748;7.102;2022-10-28T06:22:06;10.23;;;3.33;;
32445;SDS011;18899;50.748;7.102;2022-10-28T06:24:32;13.73;;;4.05;;
32445;SDS011;18899;50.748;7.102;2022-10-28T06:26:57;13.90;;;4.13;;
32445;SDS011;18899;50.748;7.102;2022-10-28T06:29:23;14.13;;;2.90;;
32445;SDS011;18899;50.748;7.102;2022-10-28T06:31:48;12.15;;;3.72;;
32445;SDS011;18899;50.748;7.102;2022-10-28T06:34:13;18.73;;;3.53;;
32445;SDS011;18899;50.748;7.102;2022-10-28T06:36:39;7.50;;;2.85;;
32445;SDS011;18899;50.748;7.102;2022-10-28T06:39:05;8.60;;;3.03;;
32445;SDS011;18899;50.748;7.102;2022-10-28T06:41:31;9.73;;;3.58;;
32445;SDS011;18899;50.748;7.102;2022-10-28T06:43:57;12.70;;;3.42;;
32445;SDS011;18899;50.748;7.102;2022-10-28T06:46:22;14.18;;;3.38;;
32445;SDS011;18899;50.748;7.102;2022-10-28T06:48:48;8.65;;;2.83;;
32445;SDS011;18899;50.748;7.102;2022-10-28T06:51:13;8.82;;;3.55;;
32445;SDS011;18899;50.748;7.102;2022-10-28T06:53:41;7.72;;;2.90;;
32445;SDS011;18899;50.748;7.102;2022-10-28T06:56:07;15.18;;;3.63;;
32445;SDS011;18899;50.748;7.102;2022-10-28T06:58:33;9.07;;;3.45;;
32445;SDS011;18899;50.748;7.102;2022-10-28T07:01:05;14.52;;;3.95;;
32445;SDS011;18899;50.748;7.102;2022-10-28T07:03:31;16.85;;;2.92;;
32445;SDS011;18899;50.748;7.102;2022-10-28T07:05:57;15.20;;;3.65;;
32445;SDS011;18899;50.748;7.102;2022-10-28T07:08:23;19.27;;;4.03;;
32445;SDS011;18899;50.748;7.102;2022-10-28T07:10:53;12.40;;;3.35;;
32445;SDS011;18899;50.748;7.102;2022-10-28T07:13:20;13.95;;;3.65;;
32445;SDS011;18899;50.748;7.102;2022-10-28T07:15:49;14.40;;;3.35;;
32445;SDS011;18899;50.748;7.102;2022-10-28T07:18:16;15.02;;;4.03;;
32445;SDS011;18899;50.748;7.102;2022-10-28T07:20:42;8.20;;;2.50;;
32445;SDS011;18899;50.748;7.102;2022-10-28T07:23:07;13.18;;;3.33;;
32445;SDS011;18899;50.748;7.102;2022-10-28T07:25:33;13.45;;;3.10;;
32445;SDS011;18899;50.748;7.102;2022-10-28T07:27:58;6.18;;;2.63;;
32445;SDS011;18899;50.748;7.102;2022-10-28T07:30:25;16.25;;;3.42;;
32445;SDS011;18899;50.748;7.102;2022-10-28T07:32:51;11.77;;;3.42;;
32445;SDS011;18899;50.748;7.102;2022-10-28T07:35:16;11.40;;;3.78;;
32445;SDS011;18899;50.748;7.102;2022-10-28T07:37:42;11.93;;;3.03;;
32445;SDS011;18899;50.748;7.102;2022-10-28T07:40:08;11.10;;;3.30;;
32445;SDS011;18899;50.748;7.102;2022-10-28T07:42:33;11.20;;;3.53;;
32445;SDS011;18899;50.748;7.102;2022-10-28T07:44:59;8.52;;;3.10;;
32445;SDS011;18899;50.748;7.102;2022-10-28T07:47:24;13.15;;;3.25;;
32445;SDS011;18899;50.748;7.102;2022-10-28T07:49:50;8.45;;;2.97;;
32445;SDS011;18899;50.748;7.102;2022-10-28T07:52:18;12.40;;;3.08;;
32445;SDS011;18899;50.748;7.102;2022-10-28T07:54:44;17.35;;;3.22;;
32445;SDS011;18899;50.748;7.102;2022-10-28T07:57:09;16.83;;;3.10;;
32445;SDS011;18899;50.748;7.102;2022-10-28T07:59:35;15.48;;;3.78;;
32445;SDS011;18899;50.748;7.102;2022-10-28T08:02:00;12.98;;;3.03;;
32445;SDS011;18899;50.748;7.102;2022-10-28T08:04:30;13.88;;;3.33;;
32445;SDS011;18899;50.748;7.102;2022-10-28T08:06:56;11.23;;;4.45;;
32445;SDS011;18899;50.748;7.102;2022-10-28T08:09:22;16.23;;;2.97;;
32445;SDS011;18899;50.748;7.102;2022-10-28T08:11:48;10.20;;;3.00;;
32445;SDS011;18899;50.748;7.102;2022-10-28T08:14:14;14.50;;;3.05;;
32445;SDS011;18899;50.748;7.102;2022-10-28T08:16:39;14.30;;;3.15;;
32445;SDS011;18899;50.748;7.102;2022-10-28T08:19:05;14.18;;;3.50;;
32445;SDS011;18899;50.748;7.102;2022-10-28T08:21:30;12.80;;;3.88;;
32445;SDS011;18899;50.748;7.102;2022-10-28T08:23:56;16.75;;;3.85;;
32445;SDS011;18899;50.748;7.102;2022-10-28T08:26:21;11.85;;;3.13;;
32445;SDS011;18899;50.748;7.102;2022-10-28T08:28:47;9.73;;;2.97;;
32445;SDS011;18899;50.748;7.102;2022-10-28T08:31:13;10.57;;;2.83;;
32445;SDS011;18899;50.748;7.102;2022-10-28T08:33:39;12.88;;;3.15;;
32445;SDS011;18899;50.748;7.102;2022-10-28T08:36:08;14.98;;;2.88;;
32445;SDS011;18899;50.748;7.102;2022-10-28T08:38:39;17.63;;;3.50;;
32445;SDS011;18899;50.748;7.102;2022-10-28T08:41:13;12.23;;;3.53;;
32445;SDS011;18899;50.748;7.102;2022-10-28T08:49:37;11.10;;;2.83;;
32445;SDS011;18899;50.748;7.102;2022-10-28T08:57:43;16.30;;;2.50;;
32445;SDS011;18899;50.748;7.102;2022-10-28T09:00:17;14.77;;;3.33;;
32445;SDS011;18899;50.748;7.102;2022-10-28T09:02:51;10.98;;;2.83;;
32445;SDS011;18899;50.748;7.102;2022-10-28T09:05:40;12.63;;;2.67;;
32445;SDS011;18899;50.748;7.102;2022-10-28T09:08:29;16.80;;;2.97;;
32445;SDS011;18899;50.748;7.102;2022-10-28T09:11:18;10.75;;;3.20;;
32445;SDS011;18899;50.748;7.102;2022-10-28T09:16:44;14.35;;;4.20;;
32445;SDS011;18899;50.748;7.102;2022-10-28T09:25:24;11.40;;;2.60;;
32445;SDS011;18899;50.748;7.102;2022-10-28T09:28:05;15.23;;;3.60;;
32445;SDS011;18899;50.748;7.102;2022-10-28T09:30:43;11.82;;;2.70;;
32445;SDS011;18899;50.748;7.102;2022-10-28T09:33:29;10.02;;;3.03;;
32445;SDS011;18899;50.748;7.102;2022-10-28T09:36:12;17.35;;;3.13;;
32445;SDS011;18899;50.748;7.102;2022-10-28T09:38:42;11.48;;;2.92;;
32445;SDS011;18899;50.748;7.102;2022-10-28T09:43:44;13.65;;;2.85;;
32445;SDS011;18899;50.748;7.102;2022-10-28T09:46:17;10.60;;;2.80;;
32445;SDS011;18899;50.748;7.102;2022-10-28T09:48:47;13.27;;;2.88;;
32445;SDS011;18899;50.748;7.102;2022-10-28T09:51:57;7.40;;;2.40;;
32445;SDS011;18899;50.748;7.102;2022-10-28T09:54:07;10.27;;;2.88;;
32445;SDS011;18899;50.748;7.102;2022-10-28T09:56:34;17.10;;;2.97;;
32445;SDS011;18899;50.748;7.102;2022-10-28T09:59:00;14.13;;;3.00;;
32445;SDS011;18899;50.748;7.102;2022-10-28T10:01:28;9.45;;;2.45;;
32445;SDS011;18899;50.748;7.102;2022-10-28T10:03:57;13.50;;;3.20;;
32445;SDS011;18899;50.748;7.102;2022-10-28T10:06:34;11.02;;;2.85;;
32445;SDS011;18899;50.748;7.102;2022-10-28T10:09:01;11.45;;;3.13;;
32445;SDS011;18899;50.748;7.102;2022-10-28T10:11:30;14.65;;;2.80;;
32445;SDS011;18899;50.748;7.102;2022-10-28T10:14:02;16.92;;;3.60;;
32445;SDS011;18899;50.748;7.102;2022-10-28T10:16:44;15.07;;;3.00;;
32445;SDS011;18899;50.748;7.102;2022-10-28T10:19:13;11.30;;;4.57;;
32445;SDS011;18899;50.748;7.102;2022-10-28T10:21:40;15.88;;;3.13;;
32445;SDS011;18899;50.748;7.102;2022-10-28T10:24:22;13.32;;;3.38;;
32445;SDS011;18899;50.748;7.102;2022-10-28T10:27:00;14.73;;;3.85;;
32445;SDS011;18899;50.748;7.102;2022-10-28T10:29:47;14.45;;;3.45;;
32445;SDS011;18899;50.748;7.102;2022-10-28T10:34:48;15.93;;;3.15;;
32445;SDS011;18899;50.748;7.102;2022-10-28T10:37:44;12.52;;;2.95;;
32445;SDS011;18899;50.748;7.102;2022-10-28T10:40:15;18.70;;;3.88;;
32445;SDS011;18899;50.748;7.102;2022-10-28T10:42:42;12.95;;;3.30;;
32445;SDS011;18899;50.748;7.102;2022-10-28T10:45:19;14.25;;;2.92;;
32445;SDS011;18899;50.748;7.102;2022-10-28T10:48:00;19.88;;;3.17;;
32445;SDS011;18899;50.748;7.102;2022-10-28T10:50:31;11.35;;;3.17;;
32445;SDS011;18899;50.748;7.102;2022-10-28T10:52:57;11.82;;;3.35;;
32445;SDS011;18899;50.748;7.102;2022-10-28T10:58:01;20.52;;;3.83;;
32445;SDS011;18899;50.748;7.102;2022-10-28T11:00:29;11.13;;;3.10;;
32445;SDS011;18899;50.748;7.102;2022-10-28T11:02:58;17.00;;;3.00;;
32445;SDS011;18899;50.748;7.102;2022-10-28T11:05:25;13.32;;;4.00;;
32445;SDS011;18899;50.748;7.102;2022-10-28T11:07:51;17.75;;;3.53;;
32445;SDS011;18899;50.748;7.102;2022-10-28T11:10:19;11.82;;;3.10;;
32445;SDS011;18899;50.748;7.102;2022-10-28T11:13:24;12.10;;;3.45;;
32445;SDS011;18899;50.748;7.102;2022-10-28T11:15:58;12.10;;;2.75;;
32445;SDS011;18899;50.748;7.102;2022-10-28T11:18:28;19.42;;;3.80;;
32445;SDS011;18899;50.748;7.102;2022-10-28T11:21:07;17.20;;;3.45;;
32445;SDS011;18899;50.748;7.102;2022-10-28T11:26:48;12.07;;;3.58;;
32445;SDS011;18899;50.748;7.102;2022-10-28T11:29:36;11.77;;;3.25;;
32445;SDS011;18899;50.748;7.102;2022-10-28T11:32:06;22.02;;;3.50;;
32445;SDS011;18899;50.748;7.102;2022-10-28T11:58:08;14.97;;;3.37;;
32445;SDS011;18899;50.748;7.102;2022-10-28T12:03:18;13.38;;;3.35;;
32445;SDS011;18899;50.748;7.102;2022-10-28T12:11:27;16.67;;;3.83;;
32445;SDS011;18899;50.748;7.102;2022-10-28T12:19:40;13.85;;;3.28;;
32445;SDS011;18899;50.748;7.102;2022-10-28T12:22:28;17.77;;;3.25;;
32445;SDS011;18899;50.748;7.102;2022-10-28T12:24:57;8.35;;;2.60;;
32445;SDS011;18899;50.748;7.102;2022-10-28T12:27:28;16.92;;;2.65;;
32445;SDS011;18899;50.748;7.102;2022-10-28T12:30:02;16.02;;;3.75;;
32445;SDS011;18899;50.748;7.102;2022-10-28T12:32:38;17.70;;;2.80;;
32445;SDS011;18899;50.748;7.102;2022-10-28T12:35:06;13.15;;;3.40;;
32445;SDS011;18899;50.748;7.102;2022-10-28T12:37:56;13.65;;;2.30;;
32445;SDS011;18899;50.748;7.102;2022-10-28T12:40:40;19.33;;;3.15;;
32445;SDS011;18899;50.748;7.102;2022-10-28T12:43:28;12.52;;;2.83;;
32445;SDS011;18899;50.748;7.102;2022-10-28T12:46:08;14.15;;;2.63;;
32445;SDS011;18899;50.748;7.102;2022-10-28T12:48:47;15.68;;;3.25;;
32445;SDS011;18899;50.748;7.102;2022-10-28T12:53:57;13.93;;;3.17;;
32445;SDS011;18899;50.748;7.102;2022-10-28T12:56:39;11.05;;;3.10;;
32445;SDS011;18899;50.748;7.102;2022-10-28T12:59:14;15.15;;;2.75;;
32445;SDS011;18899;50.748;7.102;2022-10-28T13:01:45;14.60;;;3.38;;
32445;SDS011;18899;50.748;7.102;2022-10-28T13:04:13;22.77;;;3.20;;
32445;SDS011;18899;50.748;7.102;2022-10-28T13:15:23;14.95;;;2.90;;
32445;SDS011;18899;50.748;7.102;2022-10-28T13:18:13;11.75;;;3.05;;
32445;SDS011;18899;50.748;7.102;2022-10-28T13:26:39;18.33;;;3.40;;
32445;SDS011;18899;50.748;7.102;2022-10-28T13:29:15;13.50;;;2.70;;
32445;SDS011;18899;50.748;7.102;2022-10-28T13:31:45;11.15;;;2.88;;
32445;SDS011;18899;50.748;7.102;2022-10-28T13:34:13;20.90;;;3.30;;
32445;SDS011;18899;50.748;7.102;2022-10-28T13:36:41;16.65;;;2.97;;
32445;SDS011;18899;50.748;7.102;2022-10-28T13:52:38;16.27;;;3.20;;
32445;SDS011;18899;50.748;7.102;2022-10-28T13:57:50;12.48;;;2.85;;
32445;SDS011;18899;50.748;7.102;2022-10-28T14:10:29;14.63;;;3.67;;
32445;SDS011;18899;50.748;7.102;2022-10-28T14:12:57;18.50;;;3.60;;
32445;SDS011;18899;50.748;7.102;2022-10-28T14:15:39;7.97;;;2.92;;
32445;SDS011;18899;50.748;7.102;2022-10-28T14:49:37;17.75;;;4.50;;
32445;SDS011;18899;50.748;7.102;2022-10-28T14:52:10;18.88;;;3.03;;
32445;SDS011;18899;50.748;7.102;2022-10-28T14:54:43;13.45;;;3.20;;
32445;SDS011;18899;50.748;7.102;2022-10-28T14:57:15;8.10;;;3.25;;
32445;SDS011;18899;50.748;7.102;2022-10-28T14:59:46;21.17;;;3.75;;
32445;SDS011;18899;50.748;7.102;2022-10-28T15:02:19;13.90;;;3.60;;
32445;SDS011;18899;50.748;7.102;2022-10-28T15:05:25;16.92;;;3.40;;
32445;SDS011;18899;50.748;7.102;2022-10-28T15:07:44;10.15;;;2.53;;
32445;SDS011;18899;50.748;7.102;2022-10-28T15:12:39;12.40;;;3.40;;
32445;SDS011;18899;50.748;7.102;2022-10-28T15:15:29;12.70;;;3.00;;
32445;SDS011;18899;50.748;7.102;2022-10-28T15:17:54;11.27;;;2.70;;
32445;SDS011;18899;50.748;7.102;2022-10-28T15:20:22;14.50;;;3.30;;
32445;SDS011;18899;50.748;7.102;2022-10-28T15:22:51;20.48;;;3.60;;
32445;SDS011;18899;50.748;7.102;2022-10-28T15:25:34;19.23;;;3.30;;
32445;SDS011;18899;50.748;7.102;2022-10-28T15:27:59;21.90;;;3.40;;
32445;SDS011;18899;50.748;7.102;2022-10-28T15:30:25;16.75;;;3.42;;
32445;SDS011;18899;50.748;7.102;2022-10-28T15:32:51;21.85;;;4.00;;
32445;SDS011;18899;50.748;7.102;2022-10-28T15:37:54;14.60;;;3.38;;
32445;SDS011;18899;50.748;7.102;2022-10-28T15:40:23;13.30;;;3.28;;
32445;SDS011;18899;50.748;7.102;2022-10-28T15:42:58;8.38;;;3.08;;
32445;SDS011;18899;50.748;7.102;2022-10-28T15:45:26;15.68;;;3.13;;
32445;SDS011;18899;50.748;7.102;2022-10-28T15:47:53;17.92;;;3.97;;
32445;SDS011;18899;50.748;7.102;2022-10-28T15:50:25;12.75;;;3.80;;
32445;SDS011;18899;50.748;7.102;2022-10-28T15:52:52;15.95;;;2.95;;
32445;SDS011;18899;50.748;7.102;2022-10-28T15:57:56;15.82;;;3.72;;
32445;SDS011;18899;50.748;7.102;2022-10-28T16:00:29;14.57;;;3.40;;
32445;SDS011;18899;50.748;7.102;2022-10-28T16:02:57;12.27;;;3.40;;
32445;SDS011;18899;50.748;7.102;2022-10-28T16:08:05;18.15;;;3.55;;
32445;SDS011;18899;50.748;7.102;2022-10-28T16:11:02;13.90;;;2.92;;
32445;SDS011;18899;50.748;7.102;2022-10-28T16:13:33;12.32;;;3.35;;
32445;SDS011;18899;50.748;7.102;2022-10-28T16:16:03;11.65;;;3.92;;
32445;SDS011;18899;50.748;7.102;2022-10-28T16:21:26;15.35;;;3.50;;
32445;SDS011;18899;50.748;7.102;2022-10-28T16:23:52;13.85;;;3.72;;
32445;SDS011;18899;50.748;7.102;2022-10-28T16:26:23;17.95;;;3.55;;
32445;SDS011;18899;50.748;7.102;2022-10-28T16:28:49;9.35;;;3.30;;
32445;SDS011;18899;50.748;7.102;2022-10-28T16:31:15;13.48;;;3.03;;
32445;SDS011;18899;50.748;7.102;2022-10-28T16:33:42;15.43;;;3.25;;
32445;SDS011;18899;50.748;7.102;2022-10-28T16:36:08;14.32;;;3.28;;
32445;SDS011;18899;50.748;7.102;2022-10-28T16:38:34;20.15;;;3.78;;
32445;SDS011;18899;50.748;7.102;2022-10-28T16:41:01;20.55;;;3.53;;
32445;SDS011;18899;50.748;7.102;2022-10-28T16:43:28;15.15;;;3.78;;
32445;SDS011;18899;50.748;7.102;2022-10-28T16:45:55;15.38;;;4.30;;
32445;SDS011;18899;50.748;7.102;2022-10-28T16:48:23;18.42;;;4.57;;
32445;SDS011;18899;50.748;7.102;2022-10-28T16:50:54;14.23;;;4.72;;
32445;SDS011;18899;50.748;7.102;2022-10-28T16:53:20;18.02;;;4.88;;
32445;SDS011;18899;50.748;7.102;2022-10-28T16:55:46;32.63;;;5.60;;
32445;SDS011;18899;50.748;7.102;2022-10-28T16:58:12;17.65;;;5.35;;
32445;SDS011;18899;50.748;7.102;2022-10-28T17:00:38;18.40;;;3.95;;
32445;SDS011;18899;50.748;7.102;2022-10-28T17:03:04;17.58;;;4.43;;
32445;SDS011;18899;50.748;7.102;2022-10-28T17:05:31;22.20;;;4.07;;
32445;SDS011;18899;50.748;7.102;2022-10-28T17:07:56;12.35;;;4.07;;
32445;SDS011;18899;50.748;7.102;2022-10-28T17:10:23;26.23;;;5.28;;
32445;SDS011;18899;50.748;7.102;2022-10-28T17:12:50;14.07;;;4.28;;
32445;SDS011;18899;50.748;7.102;2022-10-28T17:15:15;20.05;;;4.70;;
32445;SDS011;18899;50.748;7.102;2022-10-28T17:17:41;20.02;;;4.40;;
32445;SDS011;18899;50.748;7.102;2022-10-28T17:20:07;19.38;;;5.35;;
32445;SDS011;18899;50.748;7.102;2022-10-28T17:22:33;16.50;;;4.82;;
32445;SDS011;18899;50.748;7.102;2022-10-28T17:24:58;15.07;;;4.78;;
32445;SDS011;18899;50.748;7.102;2022-10-28T17:27:24;16.38;;;5.03;;
32445;SDS011;18899;50.748;7.102;2022-10-28T17:29:50;16.52;;;6.18;;
32445;SDS011;18899;50.748;7.102;2022-10-28T17:32:15;15.68;;;5.38;;
32445;SDS011;18899;50.748;7.102;2022-10-28T17:34:41;19.17;;;5.97;;
32445;SDS011;18899;50.748;7.102;2022-10-28T17:37:07;20.33;;;5.78;;
32445;SDS011;18899;50.748;7.102;2022-10-28T17:39:34;17.42;;;5.40;;
32445;SDS011;18899;50.748;7.102;2022-10-28T17:42:00;14.75;;;6.10;;
32445;SDS011;18899;50.748;7.102;2022-10-28T17:44:25;18.02;;;5.35;;
32445;SDS011;18899;50.748;7.102;2022-10-28T17:46:51;20.10;;;5.57;;
32445;SDS011;18899;50.748;7.102;2022-10-28T17:49:17;13.77;;;4.32;;
32445;SDS011;18899;50.748;7.102;2022-10-28T17:51:43;16.05;;;4.38;;
32445;SDS011;18899;50.748;7.102;2022-10-28T17:54:08;11.75;;;4.35;;
32445;SDS011;18899;50.748;7.102;2022-10-28T17:56:35;15.38;;;5.10;;
32445;SDS011;18899;50.748;7.102;2022-10-28T17:59:01;19.70;;;4.40;;
32445;SDS011;18899;50.748;7.102;2022-10-28T18:01:28;15.10;;;4.88;;
32445;SDS011;18899;50.748;7.102;2022-10-28T18:03:55;18.55;;;4.68;;
32445;SDS011;18899;50.748;7.102;2022-10-28T18:06:21;15.55;;;4.15;;
32445;SDS011;18899;50.748;7.102;2022-10-28T18:08:46;16.15;;;4.63;;
32445;SDS011;18899;50.748;7.102;2022-10-28T18:11:13;14.50;;;3.88;;
32445;SDS011;18899;50.748;7.102;2022-10-28T18:13:40;12.98;;;3.95;;
32445;SDS011;18899;50.748;7.102;2022-10-28T18:16:19;20.60;;;4.53;;
32445;SDS011;18899;50.748;7.102;2022-10-28T18:18:48;10.05;;;4.68;;
32445;SDS011;18899;50.748;7.102;2022-10-28T18:21:15;17.08;;;4.15;;
32445;SDS011;18899;50.748;7.102;2022-10-28T18:23:41;13.23;;;4.40;;
32445;SDS011;18899;50.748;7.102;2022-10-28T18:26:10;15.32;;;5.18;;
32445;SDS011;18899;50.748;7.102;2022-10-28T18:28:38;13.82;;;4.50;;
32445;SDS011;18899;50.748;7.102;2022-10-28T18:31:14;16.67;;;4.78;;